COUO2: Red River nr Courtney, OK

                                SHEF ID:       COUO2     Red River nr Courtney, OK
STATION TYPE:

PRECIP ELEVATION STAGE RIV-FLOW BAT-LOAD
in ft ft cfs volt
Ccp-Rev Ccp-Rev Ccp-Rev Ccp-Rev Ccp-Rev
(America/Chicago)
04/25 00:00 ---- ---- 12.45 1836 12.73
04/25 01:00 ---- ---- 12.41 1803 12.73
04/25 02:00 ---- ---- 12.42 1811 12.73
04/25 03:00 ---- ---- 12.42 1811 12.65
04/25 04:00 ---- ---- 12.40 1795 12.65
04/25 05:00 ---- ---- 12.43 1820 12.65
04/25 06:00 ---- ---- 12.41 1803 12.65
04/25 07:00 ---- ---- 12.39 1786 12.65
04/25 08:00 ---- ---- 12.39 1786 12.65
04/25 09:00 ---- ---- 12.37 1770 12.97
04/25 10:00 ---- ---- 12.36 1762 13.21
04/25 11:00 ---- ---- 12.35 1753 13.37
04/25 12:00 ---- ---- 12.35 1753 13.37
04/25 13:00 ---- ---- 12.33 1737 13.53
04/25 14:00 ---- ---- 12.30 1712 13.44
04/25 15:00 ---- ---- 12.30 1712 13.37
04/25 16:00 ---- ---- 12.28 1696 13.37
04/25 17:00 ---- ---- 12.28 1696 13.21
04/25 18:00 ---- ---- 12.27 1688 13.05
04/25 19:00 ---- ---- 12.27 1688 12.89
04/25 20:00 ---- ---- 12.27 1688 12.89
04/25 21:00 ---- ---- 12.27 1688 12.81
04/25 22:00 ---- ---- 12.27 1688 12.81
04/25 23:00 ---- ---- 12.24 1664 12.81
Data processed at Sun 26Apr2026 04:41 GMT

NOTICE: If you are parsing this page

Please convert to using our Data API. Starting early 2026 we will be migrating to: https://water.usace.army.mil with modern pages rendered in JavaScript. When this migration completes you will no longer be able to scrape this page! CWMSDataAPI (CDA)

Timeseries IDs (TSIDs)

TSIDs used from left to right in the data table
COUT.Precip-Inc.Total.1Hour.1Hour.Ccp-Rev
COUT.Stage.Inst.1Hour.0.Ccp-Rev
COUT.Flow.Inst.1Hour.0.Ccp-Rev
COUT.Volt-Battery Load.Inst.1Hour.0.Ccp-Rev

                            

All information presented herein is the property of the government of the United States of America and may be revised or deleted at any time without prior notice. Dissemination of this information without the expressed written consent of the Public Affairs Office, Tulsa District U.S. Army Corps of Engineers is strictly prohibited. These data are gathered electronically and, as presented, have NOT undergone any form of quality control. These data are NOT guaranteed to be valid or correct.